• Join FlightAware (Why Join?)
  • Login
  • US Flag 
07:37PM EDT


 

Airport Tracker/Info


-or-


 

Live Flight TrackerFlight Track Log ✈ UAL1433 ✈ 19-Oct-2013 ✈ KIAH - KSFO

Flight Track Log - Related Links

Times and Time Zones

All times are in EDT time to prevent confusion due to time zone crossing. See the UAL1433 flight status page for this flight to view local times or setup timezone preferences in your user account.

Time Position Orientation Groundspeed Altitude Reporting Facility
EDT Latitude Longitude Course Direction KTS MPH feet Rate Location/Type
08:30AM 29.9750 -95.3630 264° West 187 215 1,500  Level FlightAware
08:31AM 29.9730 -95.3870 265° West 187 215 1,500 1,560 Level FlightAware
08:31AM 29.9950 -95.3860 North 208 239 2,400 4,200 Climbing FlightAware
08:31AM 30.0160 -95.3850 North 218 251 3,400 2,280 Climbing FlightAware
08:31AM 30.0290 -95.3840 North 234 269 3,700 660 Climbing FlightAware
08:32AM 30.0650 -95.3810 North 244 281 3,900 1,260 Climbing FlightAware
08:34AM 30.2210 -95.3800 330° Northwest 247 284 7,400 1,620 Climbing FlightAware
08:35AM 30.3264 -95.5342 330° Northwest  Level FlightAware Approximate
08:35AM 30.2400 -95.3960 324° Northwest 252 290 8,300  Level FlightAware
08:35AM 30.2570 -95.4090 327° Northwest 259 298 9,200 2,700 Climbing FlightAware
08:35AM 30.2770 -95.4250 325° Northwest 271 312 10,000 1,740 Climbing FlightAware
08:36AM 30.3180 -95.4640 321° Northwest 315 362 10,900 2,160 Climbing FlightAware
08:36AM 30.3540 -95.4950 323° Northwest 321 369 12,500 1,860 Climbing FlightAware
08:37AM 30.4130 -95.5460 323° Northwest 329 379 13,600 2,580 Climbing FlightAware
08:38AM 30.4630 -95.5890 323° Northwest 341 392 16,400 3,660 Climbing FlightAware
08:38AM 30.5040 -95.6250 323° Northwest 351 404 17,700 2,400 Climbing FlightAware
08:39AM 30.5530 -95.6610 328° Northwest 362 417 19,200 2,340 Climbing FlightAware
08:39AM 30.6030 -95.6880 335° Northwest 370 426 20,400 1,980 Climbing FlightAware
08:40AM 30.6650 -95.7210 335° Northwest 384 442 21,500 1,800 Climbing FlightAware
08:41AM 30.7370 -95.7600 335° Northwest 397 457 22,900 1,860 Climbing FlightAware
08:42AM 30.8870 -95.8400 335° Northwest 403 464 25,800 1,680 Climbing FlightAware
08:43AM 30.9860 -95.8940 335° Northwest 421 484 27,100 1,560 Climbing FlightAware
08:44AM 31.0650 -95.9360 336° Northwest 419 482 28,400 1,620 Climbing FlightAware
08:45AM 31.1220 -95.9660 336° Northwest 426 490 29,100 1,080 Climbing FlightAware
08:45AM 31.1910 -95.9940 341° North 443 510 29,700 960 Climbing FlightAware
08:46AM 31.2340 -96.0110 341° North 449 517 30,100 900 Climbing FlightAware
08:47AM 31.3590 -96.0590 342° North 463 533 31,000 1,020 Climbing FlightAware
08:47AM 31.4240 -96.0850 341° North 463 533 31,700 1,620 Climbing FlightAware
08:48AM 31.4990 -96.1140 342° North 452 520 32,900 1,260 Climbing FlightAware
08:49AM 31.6720 -96.1810 342° North 456 525 34,400 1,020 Climbing FlightAware
08:50AM 31.7470 -96.2100 342° North 459 528 35,000 1,020 Climbing FlightAware
08:50AM 31.8240 -96.2400 342° North 456 525 35,700 900 Climbing FlightAware
08:51AM 31.8750 -96.2600 342° North 452 520 36,000 300 Climbing FlightAware
08:51AM 31.9380 -96.2850 341° North 449 517 36,000  Level FlightAware
08:52AM 32.0210 -96.3180 341° North 448 516 36,000  Level FlightAware
08:53AM 32.0850 -96.3440 341° North 447 514 36,000  Level FlightAware
08:53AM 32.1540 -96.3720 341° North 442 509 36,000  Level FlightAware
08:54AM 32.2030 -96.4040 331° Northwest 418 481 36,000  Level FlightAware
08:54AM 32.2540 -96.4570 319° Northwest 403 464 36,000  Level FlightAware
08:55AM 32.2960 -96.5050 316° Northwest 404 465 36,000  Level FlightAware
08:55AM 32.3450 -96.5600 317° Northwest 407 468 36,000  Level FlightAware
08:56AM 32.3890 -96.6100 316° Northwest 408 470 36,000  Level FlightAware
08:57AM 32.4390 -96.6670 316° Northwest 409 471 36,000  Level FlightAware
08:57AM 32.4740 -96.7050 318° Northwest 408 470 36,000  Level FlightAware
08:57AM 32.4938 -96.7284 315° West 409 471 36,000  Level FlightAware ADS-B (KAFW)
08:58AM 32.5389 -96.7795 316° Northwest 409 471 36,000  Level FlightAware ADS-B (KAFW)
08:59AM 32.5903 -96.8378 316° Northwest 409 471 36,000  Level FlightAware ADS-B (KAFW)
08:59AM 32.6478 -96.9032 316° Northwest 410 472 36,000  Level FlightAware ADS-B (KAFW)
09:00AM 32.7107 -96.9749 316° Northwest 410 472 36,000  Level FlightAware ADS-B (KAFW)
09:01AM 32.7564 -97.0271 316° Northwest 410 472 36,000  Level FlightAware ADS-B (KAFW)
09:01AM 32.8150 -97.0940 316° Northwest 408 470 36,000  Level FlightAware
09:01AM 32.8068 -97.0847 136° Southeast 408 470 36,000  Level FlightAware ADS-B (KAFW)
09:02AM 32.8531 -97.1377 316° Northwest 407 468 36,000  Level FlightAware ADS-B (KAFW)
09:02AM 32.9073 -97.2019 315° West 403 464 36,000  Level FlightAware ADS-B (KAFW)
09:03AM 32.9500 -97.2560 313° West 402 463 36,000  Level FlightAware ADS-B (KAFW)
09:04AM 32.9935 -97.3113 313° West 400 460 36,000  Level FlightAware ADS-B (KAFW)
09:04AM 33.0467 -97.3789 313° West 399 459 36,000  Level FlightAware ADS-B (KAFW)
09:05AM 33.1007 -97.4472 313° West 396 456 36,000  Level FlightAware ADS-B (KAFW)
09:06AM 33.1440 -97.5021 313° West 395 455 36,000  Level FlightAware ADS-B (KAFW)
09:06AM 33.1935 -97.5654 313° West 394 453 36,000  Level FlightAware ADS-B (KAFW)
09:07AM 33.2467 -97.6337 313° West 398 458 36,000  Level FlightAware ADS-B (KAFW)
09:08AM 33.2988 -97.7005 313° West 400 460 36,000  Level FlightAware ADS-B (KAFW)
09:08AM 33.3420 -97.7560 313° West 399 459 36,000  Level FlightAware
09:08AM 33.3437 -97.7579 317° Northwest 399 459 36,000  Level FlightAware ADS-B (KAFW)
09:09AM 33.4390 -97.8800 313° West 398 458 36,000  Level FlightAware
09:10AM 33.4790 -97.9320 313° West 401 461 36,000  Level FlightAware
09:10AM 33.5190 -97.9830 313° West 404 465 36,000  Level FlightAware
09:11AM 33.5640 -98.0410 313° West 403 464 36,000  Level FlightAware
09:12AM 33.6130 -98.1050 313° West 403 464 36,000  Level FlightAware
09:12AM 33.6590 -98.1650 313° West 403 464 36,000  Level FlightAware
09:13AM 33.7070 -98.2270 313° West 404 465 36,000  Level FlightAware
09:13AM 33.7460 -98.2770 313° West 404 465 36,000  Level FlightAware
09:14AM 33.7920 -98.3380 312° West 403 464 36,000  Level FlightAware
09:15AM 33.8390 -98.3990 313° West 404 465 36,000  Level FlightAware
09:15AM 33.8770 -98.4490 312° West 403 464 36,000  Level FlightAware
09:16AM 33.9260 -98.5130 313° West 403 464 36,000  Level FlightAware
09:16AM 33.9680 -98.5680 313° West 404 465 36,000  Level FlightAware
09:17AM 34.0050 -98.6280 307° West 393 452 36,000  Level FlightAware
09:17AM 34.0370 -98.6890 302° West 393 452 36,000  Level FlightAware
09:18AM 34.0710 -98.7570 301° West 394 453 36,000  Level FlightAware
09:19AM 34.1050 -98.8240 302° West 393 452 36,000  Level FlightAware
09:19AM 34.1400 -98.8910 302° West 392 451 36,000  Level FlightAware
09:20AM 34.1710 -98.9510 302° West 391 450 36,000  Level FlightAware
09:20AM 34.2070 -99.0210 302° West 390 449 36,000  Level FlightAware
09:21AM 34.2380 -99.0830 301° West 389 448 36,000  Level FlightAware
09:22AM 34.2710 -99.1470 302° West 389 448 36,000  Level FlightAware
09:22AM 34.3030 -99.2120 301° West 389 448 36,000  Level FlightAware
09:23AM 34.3360 -99.2770 302° West 389 448 36,000  Level FlightAware
09:23AM 34.3730 -99.3490 302° West 388 447 36,000  Level FlightAware
09:24AM 34.4050 -99.4130 301° West 387 445 36,000  Level FlightAware
09:24AM 34.4360 -99.4740 302° West 387 445 36,000  Level FlightAware
09:25AM 34.4670 -99.5360 301° West 388 447 36,000  Level FlightAware
09:26AM 34.5020 -99.6050 302° West 391 450 36,000  Level FlightAware
09:26AM 34.5360 -99.6740 301° West 391 450 36,000  Level FlightAware
09:27AM 34.5670 -99.7360 301° West 391 450 36,000  Level FlightAware
09:27AM 34.6000 -99.8010 302° West 392 451 36,000  Level FlightAware
09:28AM 34.6340 -99.8700 301° West 395 455 36,000  Level FlightAware
09:29AM 34.6690 -99.9410 301° West 397 457 36,000  Level FlightAware
09:29AM 34.7000 -100.0030 301° West 398 458 36,000  Level FlightAware
09:30AM 34.7310 -100.0650 301° West 400 460 36,000  Level FlightAware
09:30AM 34.7680 -100.1400 301° West 399 459 36,000  Level FlightAware
09:31AM 34.8010 -100.2070 301° West 399 459 36,000  Level FlightAware
09:31AM 34.8310 -100.2680 301° West 399 459 36,000  Level FlightAware
09:32AM 34.8670 -100.3420 301° West 399 459 36,000  Level FlightAware
09:33AM 34.9000 -100.4080 301° West 397 457 36,000  Level FlightAware
09:33AM 34.9350 -100.4790 301° West 396 456 36,000  Level FlightAware
09:34AM 34.9590 -100.5290 300° West 396 456 36,000  Level FlightAware
09:34AM 34.9980 -100.6090 301° West 394 453 36,000  Level FlightAware
09:35AM 35.0300 -100.6760 300° West 393 452 36,000  Level FlightAware
09:36AM 35.0650 -100.7480 301° West 392 451 36,000  Level FlightAware
09:36AM 35.0930 -100.8040 301° West 391 450 36,000  Level FlightAware
09:37AM 35.1250 -100.8700 301° West 391 450 36,000  Level FlightAware
09:37AM 35.1600 -100.9440 300° West 391 450 36,000  Level FlightAware
09:38AM 35.1930 -101.0110 301° West 391 450 36,000  Level FlightAware
09:39AM 35.2260 -101.0800 300° West 392 451 36,000  Level FlightAware
09:39AM 35.2560 -101.1430 300° West 393 452 36,000  Level FlightAware
09:40AM 35.2880 -101.2100 300° West 395 455 36,000  Level FlightAware
09:40AM 35.3190 -101.2760 300° West 397 457 36,000  Level FlightAware
09:41AM 35.3500 -101.3410 300° West 397 457 36,000  Level FlightAware
09:41AM 35.3870 -101.4160 301° West 398 458 36,000  Level FlightAware
09:42AM 35.4170 -101.4800 300° West 397 457 36,000  Level FlightAware
09:43AM 35.4490 -101.5470 300° West 397 457 36,000  Level FlightAware
09:43AM 35.4830 -101.6190 300° West 396 456 36,000  Level FlightAware
09:44AM 35.5170 -101.6910 300° West 396 456 36,000  Level FlightAware
09:44AM 35.5450 -101.7500 300° West 396 456 36,000  Level FlightAware
09:45AM 35.5780 -101.8200 300° West 395 455 36,000  Level FlightAware
09:46AM 35.6120 -101.8930 300° West 397 457 36,000  Level FlightAware
09:46AM 35.6440 -101.9600 300° West 399 459 36,000  Level FlightAware
09:47AM 35.6740 -102.0250 300° West 400 460 36,000  Level FlightAware
09:47AM 35.7050 -102.0920 300° West 400 460 36,000  Level FlightAware
09:48AM 35.7370 -102.1600 300° West 401 461 36,000  Level FlightAware
09:48AM 35.7720 -102.2350 300° West 401 461 36,000  Level FlightAware
09:49AM 35.8030 -102.3030 299° West 402 463 36,000  Level FlightAware
09:50AM 35.8380 -102.3770 300° West 401 461 36,000  Level FlightAware
09:50AM 35.8710 -102.4480 300° West 399 459 36,000  Level FlightAware
09:51AM 35.8990 -102.5080 300° West 397 457 36,000  Level FlightAware
09:51AM 35.9300 -102.5770 299° West 396 456 36,000  Level FlightAware
09:52AM 35.9650 -102.6530 300° West 395 455 36,000  Level FlightAware
09:52AM 35.9940 -102.7170 299° West 395 455 36,000  Level FlightAware
09:53AM 36.0270 -102.7890 300° West 396 456 36,000  Level FlightAware
09:54AM 36.0570 -102.8540 300° West 396 456 36,000  Level FlightAware
09:54AM 36.0890 -102.9230 300° West 395 455 36,000  Level FlightAware
09:55AM 36.1180 -102.9890 299° West 396 456 36,000  Level FlightAware
09:55AM 36.1500 -103.0580 300° West 397 457 36,000  Level FlightAware
09:56AM 36.1850 -103.1360 299° West 399 459 36,000  Level FlightAware
09:57AM 36.2150 -103.2030 299° West 398 458 36,000  Level FlightAware
09:57AM 36.2450 -103.2700 299° West 400 460 36,000  Level FlightAware
09:58AM 36.2780 -103.3420 300° West 399 459 36,000  Level FlightAware
09:58AM 36.3070 -103.4080 299° West 402 463 36,000  Level FlightAware
09:59AM 36.3420 -103.4850 299° West 399 459 36,000  Level FlightAware
09:59AM 36.3710 -103.5510 299° West 401 461 36,000  Level FlightAware
10:00AM 36.4050 -103.6260 299° West 399 459 36,000  Level FlightAware
10:01AM 36.4330 -103.6900 299° West 401 461 36,000  Level FlightAware
10:01AM 36.4660 -103.7650 299° West 401 461 36,000  Level FlightAware
10:02AM 36.4980 -103.8360 299° West 403 464 36,000  Level FlightAware
10:02AM 36.5240 -103.8940 299° West 405 466 36,000  Level FlightAware
10:03AM 36.5600 -103.9750 299° West 405 466 36,000  Level FlightAware
10:04AM 36.5910 -104.0470 298° West 405 466 36,000  Level FlightAware
10:04AM 36.6230 -104.1180 299° West 404 465 36,000  Level FlightAware
10:05AM 36.6530 -104.1880 298° West 405 466 36,000  Level FlightAware
10:05AM 36.6860 -104.2630 299° West 404 465 36,000  Level FlightAware
10:06AM 36.7160 -104.3320 298° West 404 465 36,000  Level FlightAware
10:07AM 36.7510 -104.4100 299° West 404 465 36,000  Level FlightAware
10:07AM 36.7800 -104.4770 298° West 403 464 36,000  Level FlightAware
10:08AM 36.8120 -104.5520 298° West 404 465 36,000  Level FlightAware
10:08AM 36.8326 -104.5995 298° West 404 465 36,000  Level FlightAware ADS-B (KMTJ)
10:09AM 36.8622 -104.6681 298° West 405 466 36,000  Level FlightAware ADS-B (KMTJ)
10:09AM 36.8958 -104.7460 298° West 406 467 36,000 600 Level FlightAware ADS-B (KMTJ)
10:10AM 36.9377 -104.8434 298° West 401 461 36,900 1,020 Climbing FlightAware ADS-B (KMTJ)
10:11AM 36.9670 -104.9110 298° West 400 460 37,400 840 Climbing FlightAware
10:11AM 36.9738 -104.9272 298° West 400 460 37,500 660 Climbing FlightAware ADS-B (KMTJ)
10:12AM 37.0050 -105.0250 292° West 397 457 38,000 540 Climbing FlightAware
10:12AM 37.0086 -105.0448 283° West 401 461 38,000  Level FlightAware ADS-B (KMTJ)
10:13AM 37.0311 -105.1753 282° West 410 472 38,000  Level FlightAware ADS-B (KMTJ)
10:13AM 37.0455 -105.2589 282° West 406 467 38,000  Level FlightAware ADS-B (KMTJ)
10:14AM 37.0581 -105.3318 282° West 406 467 38,000  Level FlightAware ADS-B (KMTJ)
10:14AM 37.0730 -105.4170 282° West 410 472 38,000  Level FlightAware
10:15AM 37.0890 -105.5130 282° West 414 476 38,000  Level FlightAware
10:15AM 37.0940 -105.5406 283° West 414 476 38,000  Level FlightAware ADS-B (KMTJ)
10:16AM 37.1140 -105.6585 282° West 414 476 38,000  Level FlightAware ADS-B (KMTJ)
10:17AM 37.1296 -105.7511 282° West 412 474 38,000  Level FlightAware ADS-B (KMTJ)
10:17AM 37.1404 -105.8158 282° West 413 475 38,000  Level FlightAware ADS-B (KMTJ)
10:18AM 37.1580 -105.9190 282° West 411 473 38,000  Level FlightAware
10:18AM 37.1647 -105.9604 281° West 411 473 38,000  Level FlightAware ADS-B (KMTJ)
10:19AM 37.1762 -106.0298 282° West 412 474 38,000  Level FlightAware ADS-B (KMTJ)
10:19AM 37.1885 -106.1042 282° West 412 474 38,000  Level FlightAware ADS-B (KMTJ)
10:20AM 37.2031 -106.1932 282° West 412 474 38,000  Level FlightAware ADS-B (KMTJ)
10:20AM 37.2153 -106.2679 282° West 413 475 38,000  Level FlightAware ADS-B (KMTJ)
10:21AM 37.2268 -106.3379 282° West 415 478 38,000  Level FlightAware ADS-B (KMTJ)
10:22AM 37.2418 -106.4302 282° West 413 475 38,000  Level FlightAware ADS-B (KMTJ)
10:22AM 37.2574 -106.5268 282° West 412 474 38,000  Level FlightAware ADS-B (KMTJ)
10:23AM 37.2563 -106.5198 102° East 411 473 38,000  Level FlightAware ADS-B (KANK)
10:23AM 37.2833 -106.6883 281° West 411 473 38,000  Level FlightAware ADS-B (KMTJ)
10:24AM 37.2896 -106.7274 281° West 410 472 38,000  Level FlightAware ADS-B (KANK)
10:24AM 37.2910 -106.7363 281° West 410 472 38,000  Level FlightAware ADS-B (KMTJ)
10:24AM 37.3051 -106.8227 282° West 409 471 38,000  Level FlightAware ADS-B (KMTJ)
10:25AM 37.3164 -106.8946 281° West 410 472 38,000  Level FlightAware ADS-B (KMTJ)
10:25AM 37.3272 -106.9640 281° West 410 472 38,000  Level FlightAware ADS-B (KMTJ)
10:26AM 37.3380 -107.0331 281° West 410 472 38,000  Level FlightAware ADS-B (KMTJ)
10:26AM 37.3490 -107.1027 281° West 410 472 38,000  Level FlightAware ADS-B (KMTJ)
10:27AM 37.3613 -107.1820 281° West 410 472 38,000  Level FlightAware ADS-B (KMTJ)
10:27AM 37.3722 -107.2522 281° West 411 473 38,000  Level FlightAware ADS-B (KMTJ)
10:28AM 37.3831 -107.3228 281° West 411 473 38,000  Level FlightAware ADS-B (KMTJ)
10:28AM 37.3941 -107.3946 281° West 411 473 38,000  Level FlightAware ADS-B (KMTJ)
10:29AM 37.4052 -107.4667 281° West 412 474 38,000  Level FlightAware ADS-B (KMTJ)
10:29AM 37.4161 -107.5374 281° West 412 474 38,000  Level FlightAware ADS-B (KMTJ)
10:30AM 37.4307 -107.6336 281° West 412 474 38,000  Level FlightAware ADS-B (KMTJ)
10:31AM 37.4413 -107.7056 281° West 412 474 38,000  Level FlightAware ADS-B (KMTJ)
10:31AM 37.4523 -107.7787 281° West 412 474 38,000  Level FlightAware ADS-B (KMTJ)
10:32AM 37.4633 -107.8519 281° West 413 475 38,000  Level FlightAware ADS-B (KMTJ)
10:32AM 37.4740 -107.9232 281° West 414 476 38,000  Level FlightAware ADS-B (KMTJ)
10:33AM 37.4850 -107.9967 281° West 414 476 38,000  Level FlightAware ADS-B (KMTJ)
10:33AM 37.4957 -108.0694 281° West 416 479 38,000  Level FlightAware ADS-B (KMTJ)
10:34AM 37.5071 -108.1470 281° West 417 480 38,000  Level FlightAware ADS-B (KMTJ)
10:34AM 37.5182 -108.2230 280° West 418 481 38,000  Level FlightAware ADS-B (KMTJ)
10:35AM 37.5290 -108.2972 280° West 418 481 38,000  Level FlightAware ADS-B (KMTJ)
10:35AM 37.5392 -108.3680 280° West 419 482 38,000  Level FlightAware ADS-B (KMTJ)
10:36AM 37.5497 -108.4408 280° West 420 483 38,000  Level FlightAware ADS-B (KMTJ)
10:36AM 37.5605 -108.5161 280° West 420 483 38,000  Level FlightAware ADS-B (KMTJ)
10:37AM 37.5726 -108.6007 280° West 421 484 38,000  Level FlightAware ADS-B (KMTJ)
10:37AM 37.5827 -108.6713 280° West 422 486 38,000  Level FlightAware ADS-B (KMTJ)
10:38AM 37.5932 -108.7449 280° West 422 486 38,000  Level FlightAware ADS-B (KMTJ)
10:39AM 37.6052 -108.8311 280° West 421 484 38,000  Level FlightAware ADS-B (KMTJ)
10:39AM 37.6086 -108.8549 280° West 422 486 38,000  Level FlightAware ADS-B (KMTJ)
10:40AM 37.6268 -108.9837 280° West 420 483 38,000  Level FlightAware ADS-B (KMTJ)
10:40AM 37.6369 -109.0571 280° West 419 482 38,000  Level FlightAware ADS-B (KMTJ)
10:41AM 37.6460 -109.1223 280° West 417 480 38,000  Level FlightAware ADS-B (KMTJ)
10:41AM 37.6576 -109.2054 280° West 416 479 38,000  Level FlightAware ADS-B (KMTJ)
10:42AM 37.6670 -109.2742 280° West 415 478 38,000  Level FlightAware ADS-B (KMTJ)
10:42AM 37.6804 -109.3721 280° West 414 476 38,000  Level FlightAware ADS-B (KMTJ)
10:43AM 37.6929 -109.4672 280° West 417 480 38,000  Level FlightAware ADS-B (KMTJ)
10:43AM 37.7027 -109.5411 280° West 419 482 38,000  Level FlightAware ADS-B (KMTJ)
10:44AM 37.7130 -109.6180 280° West 421 484 38,000  Level FlightAware ADS-B (KMTJ)
10:45AM 37.7223 -109.6871 280° West 421 484 38,000  Level FlightAware ADS-B (KMTJ)
10:45AM 37.7327 -109.7645 280° West 421 484 38,000  Level FlightAware ADS-B (KMTJ)
10:46AM 37.7424 -109.8379 280° West 422 486 38,000  Level FlightAware ADS-B (KMTJ)
10:46AM 37.7531 -109.9192 279° West 422 486 38,000  Level FlightAware ADS-B (KMTJ)
10:47AM 37.7632 -109.9979 279° West 423 487 38,000  Level FlightAware ADS-B (KMTJ)
10:47AM 37.7708 -110.0564 279° West 422 486 38,000  Level FlightAware ADS-B (KMTJ)
10:47AM 37.7755 -110.0922 279° West 422 486 38,000  Level FlightAware ADS-B (KMTJ)
10:48AM 37.7891 -110.1972 279° West 422 486 38,000  Level FlightAware ADS-B (KMTJ)
10:49AM 37.8003 -110.2844 279° West 422 486 38,000  Level FlightAware ADS-B (KMTJ)
10:49AM 37.8121 -110.3769 279° West 422 486 38,000  Level FlightAware ADS-B (KMTJ)
10:50AM 37.8247 -110.4776 279° West 421 484 38,000  Level FlightAware ADS-B (KMTJ)
10:51AM 37.8360 -110.5662 279° West 422 486 38,000  Level FlightAware ADS-B (KMTJ)
10:51AM 37.8464 -110.6503 279° West 423 487 38,000  Level FlightAware ADS-B (KMTJ)
10:52AM 37.8551 -110.7205 279° West 425 489 38,000  Level FlightAware ADS-B (KMTJ)
10:52AM 37.8662 -110.8103 279° West 426 490 38,000  Level FlightAware ADS-B (KMTJ)
10:53AM 37.8800 -110.9240 279° West 426 490 38,000  Level FlightAware
10:54AM 37.8900 -111.0070 279° West 427 491 38,000  Level FlightAware
10:54AM 37.9000 -111.0910 279° West 427 491 38,000  Level FlightAware
10:55AM 37.9120 -111.1860 279° West 429 494 38,000  Level FlightAware
10:55AM 37.9210 -111.2650 278° West 430 495 38,000  Level FlightAware
10:56AM 37.9320 -111.3580 279° West 432 497 38,000 -120 Level FlightAware
10:56AM 37.9410 -111.4360 278° West 432 497 37,900 -660 Descending FlightAware
10:57AM 37.9520 -111.5240 279° West 427 491 37,300 -660 Descending FlightAware
10:58AM 37.9600 -111.6000 278° West 428 493 37,200 -900 Descending FlightAware
10:58AM 37.9736 -111.7120 279° West 437 503 36,200 -1,080 Descending FlightAware ADS-B
10:59AM 37.9820 -111.7900 278° West 432 497 36,000 -180 Descending FlightAware
11:00AM 37.9950 -111.9030 278° West 427 491 36,000  Level FlightAware
11:00AM 38.0030 -111.9790 278° West 427 491 36,000  Level FlightAware
11:01AM 38.0190 -112.1110 279° West 427 491 36,000  Level FlightAware
11:02AM 38.0270 -112.1870 278° West 426 490 36,000  Level FlightAware
11:02AM 38.0350 -112.2700 277° West 426 490 36,000  Level FlightAware
11:03AM 38.0420 -112.3460 277° West 426 490 36,000  Level FlightAware
11:03AM 38.0500 -112.4220 278° West 426 490 36,000  Level FlightAware
11:04AM 38.0580 -112.5040 277° West 426 490 36,000  Level FlightAware
11:05AM 38.0650 -112.5820 277° West 426 490 36,000  Level FlightAware
11:05AM 38.0720 -112.6580 277° West 426 490 36,000  Level FlightAware
11:06AM 38.0800 -112.7340 278° West 426 490 36,000  Level FlightAware
11:06AM 38.0870 -112.8100 277° West 426 490 36,000  Level FlightAware
11:07AM 38.0950 -112.8880 277° West 426 490 36,000  Level FlightAware
11:08AM 38.1020 -112.9640 277° West 426 490 36,000  Level FlightAware
11:08AM 38.1308 -113.1624 281° West 439 505 36,000  Level FlightAware ADS-B (KPVU)
11:09AM 38.1419 -113.2705 277° West 438 504 36,000  Level FlightAware ADS-B (KPVU)
11:09AM 38.1240 -113.1880 105° East 426 490 36,000  Level FlightAware
11:10AM 38.1310 -113.2650 277° West 426 490 36,000  Level FlightAware
11:10AM 38.1666 -113.5178 280° West 438 504 36,000  Level FlightAware ADS-B (KPVU)
11:11AM 38.1746 -113.5982 277° West 439 505 36,000  Level FlightAware ADS-B (KPVU)
11:13AM 38.1947 -113.9260 275° West 443 510 36,000  Level FlightAware ADS-B (KPVU)
11:15AM 38.1810 -114.3140 268° West 447 514 36,000  Level FlightAware
11:16AM 38.1760 -114.4250 267° West 448 516 36,000  Level FlightAware
11:17AM 38.1730 -114.5060 267° West 448 516 36,000  Level FlightAware
11:17AM 38.1700 -114.5860 267° West 448 516 36,000  Level FlightAware
11:18AM 38.1670 -114.6650 267° West 448 516 36,000  Level FlightAware
11:19AM 38.1630 -114.7480 267° West 448 516 36,000  Level FlightAware
11:19AM 38.1600 -114.8280 267° West 448 516 36,000  Level FlightAware
11:20AM 38.1560 -114.9090 266° West 448 516 36,000  Level FlightAware
11:20AM 38.1530 -114.9910 267° West 448 516 36,000  Level FlightAware
11:21AM 38.1500 -115.0740 267° West 448 516 36,000  Level FlightAware
11:22AM 38.1460 -115.1550 266° West 448 516 36,000  Level FlightAware
11:22AM 38.1430 -115.2350 267° West 448 516 36,000  Level FlightAware
11:23AM 38.1400 -115.3160 267° West 448 516 36,000  Level FlightAware
11:23AM 38.1360 -115.3990 267° West 448 516 36,000  Level FlightAware
11:24AM 38.1330 -115.4750 267° West 448 516 36,000  Level FlightAware
11:25AM 38.1300 -115.5550 267° West 448 516 36,000  Level FlightAware
11:25AM 38.1260 -115.6400 267° West 448 516 36,000  Level FlightAware
11:26AM 38.1030 -116.0780 266° West 458 527 36,000  Level FlightAware
11:27AM 38.0980 -116.1700 266° West 458 527 36,000  Level FlightAware
11:28AM 38.0930 -116.2760 267° West 456 525 36,000  Level FlightAware
11:28AM 38.0880 -116.3580 266° West 456 525 36,000  Level FlightAware
11:29AM 38.0820 -116.4660 266° West 456 525 36,000  Level FlightAware
11:29AM 38.0770 -116.5690 267° West 455 524 36,000  Level FlightAware
11:30AM 38.0710 -116.6650 265° West 456 525 36,000  Level FlightAware
11:31AM 38.0660 -116.7550 266° West 456 525 36,000  Level FlightAware
11:31AM 38.0600 -116.8640 266° West 457 526 36,000  Level FlightAware
11:32AM 38.0540 -116.9570 265° West 457 526 36,000  Level FlightAware
11:32AM 38.0490 -117.0500 266° West 458 527 36,000  Level FlightAware
11:33AM 38.0430 -117.1440 265° West 459 528 36,000  Level FlightAware
11:34AM 38.0360 -117.2510 265° West 459 528 36,000  Level FlightAware
11:34AM 38.0310 -117.3390 266° West 457 526 36,000  Level FlightAware
11:35AM 38.0240 -117.4520 266° West 453 521 36,000  Level FlightAware
11:35AM 38.0190 -117.5240 265° West 451 519 36,000  Level FlightAware
11:36AM 38.0130 -117.6240 266° West 449 517 36,000  Level FlightAware
11:37AM 38.0070 -117.7150 265° West 449 517 36,000  Level FlightAware
11:37AM 37.9990 -117.8160 264° West 585 673 36,000  Level FlightAware
11:38AM 37.9910 -117.8890 262° West 447 514 36,000  Level FlightAware
11:39AM 37.9760 -118.0230 262° West 447 514 36,000  Level FlightAware
11:39AM 37.9670 -118.1070 262° West 447 514 36,000  Level FlightAware
11:40AM 37.9580 -118.1870 262° West 447 514 36,000  Level FlightAware
11:41AM 37.9490 -118.2680 262° West 447 514 36,000  Level FlightAware
11:41AM 37.9400 -118.3480 262° West 447 514 36,000  Level FlightAware
11:42AM 37.9320 -118.4270 263° West 447 514 36,000  Level FlightAware
11:42AM 37.9140 -118.6000 263° West 440 506 36,000  Level FlightAware
11:43AM 37.9040 -118.6940 262° West 438 504 36,000 -180 Level FlightAware
11:44AM 37.8930 -118.7860 261° West 436 502 35,800 -600 Descending FlightAware
11:44AM 37.8840 -118.8710 262° West 439 505 35,300 -1,020 Descending FlightAware
11:45AM 37.8740 -118.9580 262° West 444 511 34,700 -1,020 Descending FlightAware
11:45AM 37.8652 -119.0311 261° West 441 507 34,300 -960 Descending FlightAware ADS-B (KAHC)
11:46AM 37.8569 -119.1045 262° West 439 505 33,800 -1,020 Descending FlightAware ADS-B (KAHC)
11:47AM 37.8420 -119.2350 262° West 447 514 33,000 -1,020 Descending FlightAware
11:47AM 37.8310 -119.3290 262° West 446 513 32,400 -900 Descending FlightAware
11:48AM 37.8210 -119.4110 261° West 443 510 32,000 -420 Descending FlightAware
11:48AM 37.8110 -119.4980 262° West 443 510 32,000  Level FlightAware
11:49AM 37.8000 -119.5860 261° West 443 510 32,000  Level FlightAware
11:49AM 37.7880 -119.6820 261° West 443 510 32,000  Level FlightAware
11:50AM 37.7770 -119.7740 261° West 445 512 32,000  Level FlightAware
11:51AM 37.7660 -119.8680 262° West 445 512 32,000  Level FlightAware
11:51AM 37.7560 -119.9480 261° West 446 513 32,000  Level FlightAware
11:52AM 37.7450 -120.0400 261° West 445 512 32,000  Level FlightAware
11:52AM 37.7340 -120.1260 261° West 445 512 32,000 -360 Level FlightAware
11:53AM 37.7220 -120.2250 261° West 442 509 31,600 -1,080 Descending FlightAware
11:53AM 37.7120 -120.3040 261° West 430 495 30,800 -1,920 Descending FlightAware
11:54AM 37.7000 -120.3970 261° West 420 483 29,400 -2,220 Descending FlightAware
11:55AM 37.6900 -120.4790 261° West 413 475 28,200 -2,220 Descending FlightAware
11:55AM 37.6790 -120.5610 260° West 407 468 26,900 -2,160 Descending FlightAware
11:56AM 37.6690 -120.6390 261° West 401 461 25,700 -2,160 Descending FlightAware
11:56AM 37.6580 -120.7200 260° West 392 451 24,400 -2,160 Descending FlightAware
11:57AM 37.6490 -120.7970 262° West 386 444 23,300 -2,100 Descending FlightAware
11:58AM 37.6380 -120.8760 260° West 379 436 22,000 -2,040 Descending FlightAware
11:58AM 37.6270 -120.9570 260° West 371 427 20,800 -1,740 Descending FlightAware
11:59AM 37.6190 -121.0250 262° West 360 414 20,000 -2,100 Descending FlightAware
11:59AM 37.6120 -121.0960 263° West 363 418 18,500 -2,700 Descending FlightAware
12:00PM 37.6050 -121.1570 262° West 17,100 -2,820 Descending FlightAware ADS-B
12:00PM 37.6009 -121.1940 262° West 370 426 16,400 -2,280 Descending FlightAware ADS-B
12:01PM 37.5927 -121.2650 262° West 366 421 15,200 -2,100 Descending FlightAware ADS-B
12:01PM 37.5854 -121.3280 262° West 358 412 14,200 -2,220 Descending FlightAware ADS-B
12:02PM 37.5782 -121.3890 262° West 350 403 13,000 -2,400 Descending FlightAware ADS-B
12:02PM 37.5712 -121.4500 262° West 344 396 11,800 -1,620 Descending FlightAware ADS-B
12:03PM 37.5645 -121.5080 262° West 324 373 11,400 -720 Descending FlightAware ADS-B
12:03PM 37.5583 -121.5610 262° West 301 346 11,100 -540 Descending FlightAware ADS-B
12:04PM 37.5521 -121.6140 262° West 288 331 10,900 -600 Descending FlightAware ADS-B
12:04PM 37.5497 -121.6290 259° West 286 329 10,700 -1,320 Descending FlightAware ADS-B
12:04PM 37.5376 -121.6800 253° West 285 328 10,000 -1,500 Descending FlightAware ADS-B
12:05PM 37.5313 -121.7070 254° West 284 327 9,500 -1,680 Descending FlightAware ADS-B
12:05PM 37.5242 -121.7360 253° West 285 328 9,000 -1,440 Descending FlightAware ADS-B
12:05PM 37.5185 -121.7600 253° West 285 328 8,700 -1,200 Descending FlightAware ADS-B
12:05PM 37.5127 -121.7840 253° West 281 323 8,400 -780 Descending FlightAware ADS-B
12:06PM 37.5070 -121.8080 253° West 271 312 8,300 -420 Descending FlightAware ADS-B
12:06PM 37.5017 -121.8300 253° West 264 304 8,200 -420 Descending FlightAware ADS-B
12:06PM 37.4962 -121.8530 253° West 258 297 8,100 -480 Descending FlightAware ADS-B
12:06PM 37.4930 -121.8670 254° West 254 292 8,000 -900 Descending FlightAware ADS-B
12:06PM 37.4920 -121.8740 260° West 251 289 7,900 -780 Descending FlightAware ADS-B
12:07PM 37.4914 -121.8790 261° West 249 287 7,900 -900 Level FlightAware ADS-B
12:07PM 37.4911 -121.8840 266° West 249 287 7,800 -2,040 Descending FlightAware ADS-B
12:07PM 37.4910 -121.8890 269° West 248 285 7,700 -1,500 Descending FlightAware ADS-B
12:07PM 37.4911 -121.8950 271° West 248 285 7,600 -1,800 Descending FlightAware ADS-B
12:07PM 37.4918 -121.9170 272° West 248 285 7,100 -1,800 Descending FlightAware ADS-B
12:07PM 37.4925 -121.9390 272° West 242 278 6,700 -1,560 Descending FlightAware ADS-B
12:07PM 37.4930 -121.9600 272° West 239 275 6,300 -1,440 Descending FlightAware ADS-B
12:08PM 37.4935 -121.9740 273° West 238 274 6,100 -1,320 Descending FlightAware ADS-B
12:08PM 37.4939 -121.9790 276° West 238 274 6,000 -1,800 Descending FlightAware ADS-B
12:08PM 37.4951 -121.9870 281° West 237 273 5,800 -1,800 Descending FlightAware ADS-B
12:08PM 37.4962 -121.9920 285° West 235 270 5,700 -1,140 Descending FlightAware ADS-B
12:08PM 37.5032 -122.0150 291° West 232 267 5,400 -1,020 Descending FlightAware ADS-B
12:08PM 37.5106 -122.0370 293° West 228 262 5,100 -1,140 Descending FlightAware ADS-B
12:09PM 37.5140 -122.0480 291° West 227 261 4,900 -1,260 Descending FlightAware ADS-B
12:09PM 37.5201 -122.0670 292° West 222 255 4,600 -1,200 Descending FlightAware ADS-B
12:09PM 37.5258 -122.0850 292° West 218 251 4,300 -1,080 Descending FlightAware ADS-B
12:09PM 37.5310 -122.1010 292° West 211 243 4,100 -1,080 Descending FlightAware ADS-B
12:10PM 37.5387 -122.1240 293° West 205 236 3,700 -1,140 Descending FlightAware ADS-B
12:10PM 37.5445 -122.1410 293° West 204 235 3,400 -1,200 Descending FlightAware ADS-B
12:10PM 37.5500 -122.1580 292° West 204 235 3,100 -1,020 Descending FlightAware ADS-B
12:11PM 37.5555 -122.1750 292° West 201 231 2,900 -960 Descending FlightAware ADS-B
12:11PM 37.5610 -122.1930 291° West 196 226 2,600 -1,200 Descending FlightAware ADS-B
12:11PM 37.5661 -122.2090 292° West 196 226 2,300 -1,020 Descending FlightAware ADS-B
12:11PM 37.5715 -122.2250 293° West 194 223 2,100 -840 Descending FlightAware ADS-B
12:12PM 37.5755 -122.2380 291° West 187 215 1,900 -900 Descending FlightAware ADS-B
12:12PM 37.5772 -122.2460 285° West 184 212 1,800 -1,140 Descending FlightAware ADS-B
12:12PM 37.5802 -122.2610 284° West 176 203 1,500 -960 Descending FlightAware ADS-B
12:12PM 37.5822 -122.2710 284° West 168 193 1,400 -720 Descending FlightAware ADS-B
12:12PM 37.5849 -122.2850 284° West 160 184 1,200 -900 Descending FlightAware ADS-B
12:12PM 37.5857 -122.2890 284° West 159 183 1,100 -1,500 Descending FlightAware ADS-B
12:12PM 37.5867 -122.2920 293° West 157 181 1,000 -780 Descending FlightAware ADS-B
12:13PM 37.5877 -122.2950 293° West 156 180 1,000 -600 Level FlightAware ADS-B
12:13PM 37.5934 -122.3100 296° West 154 177 800 -900 Descending FlightAware ADS-B
12:13PM 37.5992 -122.3230 299° West 153 176 500 -960 Descending FlightAware ADS-B
12:13PM 37.6042 -122.3350 298° West 151 174 300 -840 Descending FlightAware ADS-B
12:14PM 37.6089 -122.3460 298° West 151 174 100 -240 Descending FlightAware ADS-B
12:14PM 37.6203 -122.3742 298° West 165 190 100  Level Oakland Center